Time;durP1;ratioP1;P1;durP2;ratioP2;P2;SDS_P1;SDS_P2;PMS_P1;PMS_P2;Temp;Humidity;BMP_temperature;BMP_pressure;BME280_temperature;BME280_humidity;BME280_pressure;Samples;Min_cycle;Max_cycle;Signal;HPM_P1;HPM_P2
2020/12/09 00:00:38;;;;;;;18.20;8.80;;;;;;;;;;5059366;28;20957;-72
2020/12/09 00:03:05;;;;;;;21.07;10.13;;;;;;;;;;5073553;28;20410;-73
2020/12/09 00:05:31;;;;;;;27.40;12.97;;;;;;;;;;5051390;28;20457;-72
2020/12/09 00:07:57;;;;;;;23.90;11.73;;;;;;;;;;5055533;28;20465;-72
2020/12/09 00:10:23;;;;;;;24.10;11.30;;;;;;;;;;5053934;28;20930;-72
2020/12/09 00:12:50;;;;;;;23.70;12.77;;;;;;;;;;5055566;28;20438;-72
2020/12/09 00:15:17;;;;;;;27.93;12.07;;;;;;;;;;5054882;28;20452;-72
2020/12/09 00:17:43;;;;;;;24.60;11.60;;;;;;;;;;5075104;28;20405;-72
2020/12/09 00:20:09;;;;;;;21.63;10.77;;;;;;;;;;5072796;28;20405;-73
2020/12/09 00:22:35;;;;;;;19.83;10.80;;;;;;;;;;5054991;28;20945;-72
2020/12/09 00:25:02;;;;;;;21.10;13.07;;;;;;;;;;5054853;28;20408;-72
2020/12/09 00:27:28;;;;;;;26.43;11.83;;;;;;;;;;5053828;28;20461;-72
2020/12/09 00:29:54;;;;;;;28.83;12.67;;;;;;;;;;5053766;28;20418;-72
2020/12/09 00:32:20;;;;;;;28.77;12.73;;;;;;;;;;5054256;28;20430;-72
2020/12/09 00:34:46;;;;;;;24.67;12.07;;;;;;;;;;5054606;28;20402;-72
2020/12/09 00:37:12;;;;;;;32.97;14.00;;;;;;;;;;5053581;28;20432;-73
2020/12/09 00:39:38;;;;;;;24.73;11.70;;;;;;;;;;5054456;28;20493;-72
2020/12/09 00:42:04;;;;;;;28.50;12.77;;;;;;;;;;5054565;28;20525;-72
2020/12/09 00:44:30;;;;;;;24.07;11.90;;;;;;;;;;5054366;28;20490;-72
2020/12/09 00:46:56;;;;;;;30.27;13.20;;;;;;;;;;5066723;28;20965;-72
2020/12/09 00:49:22;;;;;;;31.20;14.20;;;;;;;;;;5074240;28;20401;-72
2020/12/09 00:51:48;;;;;;;25.37;13.00;;;;;;;;;;5072496;28;20830;-72
2020/12/09 00:54:14;;;;;;;24.20;12.17;;;;;;;;;;5074119;28;20404;-72
2020/12/09 00:56:44;;;;;;;29.77;13.00;;;;;;;;;;5071920;28;20421;-72
2020/12/09 00:59:10;;;;;;;27.30;12.77;;;;;;;;;;5072761;28;20929;-72
2020/12/09 01:01:36;;;;;;;20.17;11.90;;;;;;;;;;5071902;28;20448;-72
2020/12/09 01:04:02;;;;;;;28.57;12.20;;;;;;;;;;5052749;28;20429;-73
2020/12/09 01:06:28;;;;;;;23.50;11.30;;;;;;;;;;5051776;28;20430;-72
2020/12/09 01:08:54;;;;;;;26.40;10.93;;;;;;;;;;5035863;28;20461;-72
2020/12/09 01:11:23;;;;;;;22.43;10.93;;;;;;;;;;5052830;28;20834;-72
2020/12/09 01:13:49;;;;;;;29.97;13.17;;;;;;;;;;5035965;28;20498;-72
2020/12/09 01:16:16;;;;;;;25.03;11.07;;;;;;;;;;5052649;28;20432;-72
2020/12/09 01:18:42;;;;;;;25.80;11.80;;;;;;;;;;5053719;28;20438;-72
2020/12/09 01:21:08;;;;;;;27.20;13.20;;;;;;;;;;5052888;28;20492;-72
2020/12/09 01:23:34;;;;;;;22.93;12.20;;;;;;;;;;5053884;28;20828;-72
2020/12/09 01:26:00;;;;;;;24.83;12.47;;;;;;;;;;5052508;28;20505;-72
2020/12/09 01:28:26;;;;;;;24.10;10.80;;;;;;;;;;5053488;28;20461;-72
2020/12/09 01:30:52;;;;;;;30.50;13.20;;;;;;;;;;5051746;28;20555;-72
2020/12/09 01:33:18;;;;;;;24.53;10.83;;;;;;;;;;5053487;28;20394;-72
2020/12/09 01:35:44;;;;;;;20.80;11.60;;;;;;;;;;5054080;28;20783;-74
2020/12/09 01:38:10;;;;;;;22.80;9.90;;;;;;;;;;5053289;28;20414;-72
2020/12/09 01:40:36;;;;;;;21.90;10.83;;;;;;;;;;5053229;28;20429;-72
2020/12/09 01:43:02;;;;;;;29.40;13.07;;;;;;;;;;5051558;28;20526;-72
2020/12/09 01:45:29;;;;;;;26.60;13.27;;;;;;;;;;5053263;28;20552;-72
2020/12/09 01:47:55;;;;;;;27.00;13.07;;;;;;;;;;5052450;28;20807;-72
2020/12/09 01:50:21;;;;;;;26.90;12.40;;;;;;;;;;5052998;28;20445;-72
2020/12/09 01:52:47;;;;;;;34.87;13.87;;;;;;;;;;5065254;28;20435;-72
2020/12/09 01:55:13;;;;;;;28.90;13.13;;;;;;;;;;5073087;28;20759;-72
2020/12/09 01:57:39;;;;;;;27.00;13.30;;;;;;;;;;5071053;28;20435;-72
2020/12/09 02:00:06;;;;;;;35.20;14.10;;;;;;;;;;5073317;28;20814;-72
2020/12/09 02:02:32;;;;;;;24.20;14.07;;;;;;;;;;5060398;28;20425;-72
2020/12/09 02:04:58;;;;;;;26.97;13.60;;;;;;;;;;5053397;28;20459;-72
2020/12/09 02:07:27;;;;;;;30.30;13.67;;;;;;;;;;5051209;28;20454;-72
2020/12/09 02:09:59;;;;;;;18.40;11.23;;;;;;;;;;5052834;28;20402;-73
2020/12/09 02:12:25;;;;;;;25.33;12.40;;;;;;;;;;5050991;28;20426;-72
2020/12/09 02:14:51;;;;;;;23.97;11.47;;;;;;;;;;5052800;28;20402;-72
2020/12/09 02:17:18;;;;;;;22.83;12.80;;;;;;;;;;5033329;28;20429;-72
2020/12/09 02:19:44;;;;;;;24.37;13.90;;;;;;;;;;5052793;28;20406;-72
2020/12/09 02:22:13;;;;;;;22.30;12.43;;;;;;;;;;5051723;28;20445;-72
2020/12/09 02:24:39;;;;;;;23.87;12.00;;;;;;;;;;5052976;28;20410;-72
2020/12/09 02:27:06;;;;;;;27.10;13.10;;;;;;;;;;5050817;28;20819;-73
2020/12/09 02:29:32;;;;;;;24.23;12.13;;;;;;;;;;5015183;28;20411;-72
2020/12/09 02:31:58;;;;;;;24.70;14.50;;;;;;;;;;5032589;28;20784;-72
2020/12/09 02:34:24;;;;;;;22.27;10.70;;;;;;;;;;5052830;28;20793;-72
2020/12/09 02:36:50;;;;;;;22.07;11.37;;;;;;;;;;5052742;28;20443;-72
2020/12/09 02:39:16;;;;;;;23.43;13.97;;;;;;;;;;5054237;28;20421;-72
2020/12/09 02:41:42;;;;;;;21.00;11.00;;;;;;;;;;5056576;28;20505;-72
2020/12/09 02:44:08;;;;;;;25.63;13.03;;;;;;;;;;5073071;28;20529;-72
2020/12/09 02:46:34;;;;;;;21.47;12.30;;;;;;;;;;5076516;28;20885;-72
2020/12/09 02:49:00;;;;;;;22.63;11.27;;;;;;;;;;5058598;28;20454;-72
2020/12/09 02:51:26;;;;;;;22.80;13.40;;;;;;;;;;5056228;28;20442;-72
2020/12/09 02:53:52;;;;;;;26.87;13.93;;;;;;;;;;5055259;28;20422;-72
2020/12/09 02:56:18;;;;;;;23.80;12.03;;;;;;;;;;5056597;28;20437;-72
2020/12/09 02:58:44;;;;;;;18.77;9.83;;;;;;;;;;5055362;28;20424;-72
2020/12/09 03:01:11;;;;;;;22.40;12.07;;;;;;;;;;5056467;28;20850;-72
2020/12/09 03:03:37;;;;;;;22.60;11.70;;;;;;;;;;5054474;28;20937;-72
2020/12/09 03:06:03;;;;;;;22.03;12.60;;;;;;;;;;5056431;28;20887;-72
2020/12/09 03:08:29;;;;;;;23.27;12.00;;;;;;;;;;5054033;28;20453;-72
2020/12/09 03:10:55;;;;;;;23.93;11.97;;;;;;;;;;5055811;28;20584;-72
2020/12/09 03:13:21;;;;;;;22.73;12.10;;;;;;;;;;5054616;28;20425;-72
2020/12/09 03:15:47;;;;;;;19.17;10.73;;;;;;;;;;5056281;28;20402;-72
2020/12/09 03:18:13;;;;;;;22.20;12.77;;;;;;;;;;5054791;28;20421;-72
2020/12/09 03:20:41;;;;;;;21.70;11.73;;;;;;;;;;5055145;28;20453;-72
2020/12/09 03:23:07;;;;;;;23.30;13.20;;;;;;;;;;5037149;28;20433;-72
2020/12/09 03:25:33;;;;;;;25.40;12.47;;;;;;;;;;5055770;28;20958;-72
2020/12/09 03:27:59;;;;;;;29.60;14.40;;;;;;;;;;5055029;28;20460;-72
2020/12/09 03:30:25;;;;;;;22.63;11.00;;;;;;;;;;5055902;28;20456;-72
2020/12/09 03:32:51;;;;;;;24.20;12.30;;;;;;;;;;5059044;28;20486;-72
2020/12/09 03:35:17;;;;;;;18.93;11.33;;;;;;;;;;5075908;28;20492;-72
2020/12/09 03:37:43;;;;;;;26.37;11.53;;;;;;;;;;5070555;28;20448;-72
2020/12/09 03:40:09;;;;;;;22.97;11.97;;;;;;;;;;5055447;28;20894;-72
2020/12/09 03:42:35;;;;;;;25.13;11.23;;;;;;;;;;5055965;28;20406;-72
2020/12/09 03:45:01;;;;;;;26.00;11.77;;;;;;;;;;5075714;28;20408;-72
2020/12/09 03:47:27;;;;;;;20.50;11.13;;;;;;;;;;5064130;28;20910;-72
2020/12/09 03:49:53;;;;;;;18.30;11.03;;;;;;;;;;5053827;28;20541;-73
2020/12/09 03:52:19;;;;;;;20.50;11.00;;;;;;;;;;5054925;28;20535;-77
2020/12/09 03:54:45;;;;;;;21.07;12.50;;;;;;;;;;5054337;28;20424;-72
2020/12/09 03:57:11;;;;;;;22.43;12.10;;;;;;;;;;5055171;28;20405;-72
2020/12/09 03:59:37;;;;;;;25.63;13.30;;;;;;;;;;5054243;28;20418;-71
2020/12/09 04:02:02;;;;;;;25.43;12.57;;;;;;;;;;5055340;28;20426;-72
2020/12/09 04:04:28;;;;;;;25.60;14.13;;;;;;;;;;5054130;28;20910;-72
2020/12/09 04:06:55;;;;;;;22.23;11.57;;;;;;;;;;5037083;28;20420;-71
2020/12/09 04:09:21;;;;;;;24.47;13.37;;;;;;;;;;5054213;28;20567;-72
2020/12/09 04:11:47;;;;;;;20.00;10.60;;;;;;;;;;5053541;28;20453;-72
2020/12/09 04:14:13;;;;;;;25.83;12.93;;;;;;;;;;5054032;28;20926;-72
2020/12/09 04:16:39;;;;;;;24.83;13.77;;;;;;;;;;5055099;28;20424;-72
2020/12/09 04:19:05;;;;;;;28.77;13.23;;;;;;;;;;5053770;28;20426;-72
2020/12/09 04:21:31;;;;;;;24.40;12.40;;;;;;;;;;5054694;28;20430;-72
2020/12/09 04:23:57;;;;;;;21.93;10.13;;;;;;;;;;5053844;28;20422;-72
2020/12/09 04:26:23;;;;;;;21.37;11.50;;;;;;;;;;5053812;28;20438;-72
2020/12/09 04:28:49;;;;;;;21.87;13.47;;;;;;;;;;5053808;28;20622;-72
2020/12/09 04:31:14;;;;;;;23.87;12.17;;;;;;;;;;5054843;28;20434;-72
2020/12/09 04:33:51;;;;;;;24.37;12.40;;;;;;;;;;5053527;28;20444;-73
2020/12/09 04:36:17;;;;;;;23.17;11.90;;;;;;;;;;5054540;28;20394;-72
2020/12/09 04:38:43;;;;;;;23.70;12.47;;;;;;;;;;5053569;28;20429;-72
2020/12/09 04:41:09;;;;;;;23.50;12.63;;;;;;;;;;5054477;28;20430;-72
2020/12/09 04:43:35;;;;;;;27.87;14.10;;;;;;;;;;5035629;28;20422;-72
2020/12/09 04:46:01;;;;;;;20.97;11.97;;;;;;;;;;5054321;28;20497;-72
2020/12/09 04:48:29;;;;;;;25.90;13.40;;;;;;;;;;5053197;28;20989;-73
2020/12/09 04:51:08;;;;;;;22.20;11.63;;;;;;;;;;5054365;28;20927;-72
2020/12/09 04:53:34;;;;;;;26.83;14.23;;;;;;;;;;5053849;28;20425;-73
2020/12/09 04:56:00;;;;;;;28.87;12.87;;;;;;;;;;5074160;28;20484;-73
2020/12/09 04:58:26;;;;;;;24.63;13.93;;;;;;;;;;5072533;28;20881;-73
2020/12/09 05:01:00;;;;;;;21.97;11.80;;;;;;;;;;5073686;28;20492;-72
2020/12/09 05:03:31;;;;;;;24.77;13.07;;;;;;;;;;5071330;28;20749;-73
2020/12/09 05:05:57;;;;;;;26.33;12.20;;;;;;;;;;5054176;28;20382;-72
2020/12/09 05:08:27;;;;;;;34.23;13.77;;;;;;;;;;5052863;28;20459;-73
2020/12/09 05:10:53;;;;;;;30.93;13.13;;;;;;;;;;5053871;28;20838;-72
2020/12/09 05:13:20;;;;;;;23.10;13.03;;;;;;;;;;5048570;28;20421;-77
2020/12/09 05:15:47;;;;;;;23.10;12.10;;;;;;;;;;5053401;28;20414;-72
2020/12/09 05:18:17;;;;;;;28.20;13.33;;;;;;;;;;5035806;28;20414;-72
2020/12/09 05:20:43;;;;;;;27.67;13.37;;;;;;;;;;5052577;28;20478;-72
2020/12/09 05:23:10;;;;;;;26.80;14.90;;;;;;;;;;5053874;28;20398;-72
2020/12/09 05:25:37;;;;;;;21.90;13.33;;;;;;;;;;5052719;28;20775;-72
2020/12/09 05:28:04;;;;;;;26.03;13.67;;;;;;;;;;5053905;28;20577;-72
2020/12/09 05:30:39;;;;;;;24.40;13.40;;;;;;;;;;5052379;28;20456;-72
2020/12/09 05:33:06;;;;;;;30.03;15.10;;;;;;;;;;5052477;28;20788;-72
2020/12/09 05:35:32;;;;;;;28.03;14.70;;;;;;;;;;5069208;28;20770;-72
2020/12/09 05:38:27;;;;;;;23.43;12.50;;;;;;;;;;5072060;28;20413;-72
2020/12/09 05:40:55;;;;;;;29.37;14.80;;;;;;;;;;5044447;28;20457;-72
2020/12/09 05:43:21;;;;;;;25.97;13.07;;;;;;;;;;5053532;28;20420;-72
2020/12/09 05:45:47;;;;;;;21.93;12.93;;;;;;;;;;5034445;28;20430;-72
2020/12/09 05:48:19;;;;;;;25.03;12.77;;;;;;;;;;5053178;28;20793;-72
2020/12/09 05:50:53;;;;;;;23.60;13.10;;;;;;;;;;5052098;28;20511;-72
2020/12/09 05:53:20;;;;;;;36.67;14.57;;;;;;;;;;5064454;28;20425;-76
2020/12/09 05:55:47;;;;;;;24.67;13.80;;;;;;;;;;5052948;28;20413;-72
2020/12/09 05:58:23;;;;;;;28.57;14.77;;;;;;;;;;5053093;28;20485;-72
2020/12/09 06:01:08;;;;;;;27.17;15.40;;;;;;;;;;5053143;28;20444;-71
2020/12/09 06:03:35;;;;;;;28.20;13.97;;;;;;;;;;5052362;28;20735;-72
2020/12/09 06:06:08;;;;;;;27.83;13.37;;;;;;;;;;5053035;28;20460;-71
2020/12/09 06:08:47;;;;;;;30.27;14.17;;;;;;;;;;5051907;28;20456;-71
2020/12/09 06:11:14;;;;;;;28.93;15.37;;;;;;;;;;5035031;28;20520;-71
2020/12/09 06:13:41;;;;;;;32.87;14.67;;;;;;;;;;5050973;28;20398;-71
2020/12/09 06:16:07;;;;;;;26.70;13.93;;;;;;;;;;5049298;28;20767;-72
2020/12/09 06:18:34;;;;;;;27.10;13.63;;;;;;;;;;5034302;28;20922;-71
2020/12/09 06:21:00;;;;;;;38.57;15.17;;;;;;;;;;5052686;28;20426;-71
2020/12/09 06:23:27;;;;;;;29.33;14.00;;;;;;;;;;5052215;28;20417;-77
2020/12/09 06:25:55;;;;;;;33.80;13.80;;;;;;;;;;5051500;28;20450;-71
2020/12/09 06:28:22;;;;;;;27.70;13.93;;;;;;;;;;5052553;28;20460;-71
2020/12/09 06:30:49;;;;;;;20.07;11.73;;;;;;;;;;5051866;28;20580;-71
2020/12/09 06:33:28;;;;;;;34.50;15.87;;;;;;;;;;5052868;28;20405;-71
2020/12/09 06:36:09;;;;;;;29.60;17.20;;;;;;;;;;5051625;28;20445;-71
2020/12/09 06:38:35;;;;;;;28.50;13.50;;;;;;;;;;5033804;28;20414;-72
2020/12/09 06:41:04;;;;;;;33.90;14.17;;;;;;;;;;5052248;28;20791;-71
2020/12/09 06:43:31;;;;;;;29.83;15.00;;;;;;;;;;5052391;28;20409;-71
2020/12/09 06:45:57;;;;;;;32.33;16.00;;;;;;;;;;5050974;28;20433;-71
2020/12/09 06:48:24;;;;;;;27.23;13.70;;;;;;;;;;5051175;28;20462;-71
2020/12/09 06:50:51;;;;;;;37.60;15.50;;;;;;;;;;5051977;28;20503;-72
2020/12/09 06:53:21;;;;;;;40.93;14.33;;;;;;;;;;5052686;28;20406;-72
2020/12/09 06:55:48;;;;;;;30.47;15.10;;;;;;;;;;5051397;28;20504;-72
2020/12/09 06:58:26;;;;;;;30.10;15.50;;;;;;;;;;5051706;28;20415;-70
2020/12/09 07:01:01;;;;;;;32.13;13.93;;;;;;;;;;5050166;28;20937;-72
2020/12/09 07:03:28;;;;;;;34.03;13.83;;;;;;;;;;5052447;28;20401;-72
2020/12/09 07:05:54;;;;;;;28.60;15.20;;;;;;;;;;5051407;28;20457;-71
2020/12/09 07:08:20;;;;;;;26.83;13.90;;;;;;;;;;5052508;28;20452;-72
2020/12/09 07:10:46;;;;;;;31.83;14.10;;;;;;;;;;5051432;28;20568;-71
2020/12/09 07:13:13;;;;;;;28.03;13.77;;;;;;;;;;5052956;28;20412;-72
2020/12/09 07:15:42;;;;;;;32.60;15.00;;;;;;;;;;5050925;28;20430;-71
2020/12/09 07:18:08;;;;;;;31.27;16.13;;;;;;;;;;5052482;28;20426;-71
2020/12/09 07:20:35;;;;;;;29.70;14.40;;;;;;;;;;5051597;28;20454;-72
2020/12/09 07:23:01;;;;;;;36.30;15.77;;;;;;;;;;5052343;28;20452;-72
2020/12/09 07:25:27;;;;;;;31.40;16.63;;;;;;;;;;5054024;28;20422;-71
2020/12/09 07:27:54;;;;;;;32.30;16.77;;;;;;;;;;5054706;28;20496;-72
2020/12/09 07:30:21;;;;;;;24.33;13.60;;;;;;;;;;5054881;28;20454;-72
2020/12/09 07:32:48;;;;;;;32.40;15.63;;;;;;;;;;5054080;28;20426;-72
2020/12/09 07:35:17;;;;;;;34.07;15.53;;;;;;;;;;5054827;28;20555;-72
2020/12/09 07:37:45;;;;;;;37.10;16.20;;;;;;;;;;5055551;28;20956;-72
2020/12/09 07:40:12;;;;;;;39.13;14.63;;;;;;;;;;5054573;28;20948;-71
2020/12/09 07:42:38;;;;;;;30.00;14.57;;;;;;;;;;5055763;28;20402;-72
2020/12/09 07:45:09;;;;;;;24.80;14.33;;;;;;;;;;5054526;28;20428;-72
2020/12/09 07:47:35;;;;;;;40.77;16.50;;;;;;;;;;5055312;28;20480;-72
2020/12/09 07:50:03;;;;;;;32.03;16.70;;;;;;;;;;5054178;28;20472;-72
2020/12/09 07:52:30;;;;;;;29.80;15.70;;;;;;;;;;5055346;28;20457;-72
2020/12/09 07:55:00;;;;;;;40.40;14.67;;;;;;;;;;5056802;28;20447;-72
2020/12/09 07:57:30;;;;;;;30.67;13.73;;;;;;;;;;5075395;28;20415;-72
2020/12/09 07:59:57;;;;;;;34.97;15.47;;;;;;;;;;5070051;28;20783;-72
2020/12/09 08:02:24;;;;;;;29.40;15.53;;;;;;;;;;5055102;28;20497;-72
2020/12/09 08:05:06;;;;;;;33.37;15.23;;;;;;;;;;5054176;28;20552;-71
2020/12/09 08:07:32;;;;;;;30.70;15.00;;;;;;;;;;5055151;28;20798;-72
2020/12/09 08:10:11;;;;;;;40.87;17.53;;;;;;;;;;5054121;28;20436;-71
2020/12/09 08:12:37;;;;;;;40.07;15.60;;;;;;;;;;5055250;28;20468;-72
2020/12/09 08:15:04;;;;;;;29.60;15.43;;;;;;;;;;5054122;28;20800;-72
2020/12/09 08:17:31;;;;;;;37.33;16.93;;;;;;;;;;5053679;28;20877;-71
2020/12/09 08:20:01;;;;;;;38.70;17.07;;;;;;;;;;5052413;28;20520;-71
2020/12/09 08:22:27;;;;;;;47.03;18.40;;;;;;;;;;5053868;28;20406;-71
2020/12/09 08:25:07;;;;;;;32.90;16.30;;;;;;;;;;5055211;28;20547;-71
2020/12/09 08:27:51;;;;;;;32.43;16.10;;;;;;;;;;5074531;28;20449;-72
2020/12/09 08:30:18;;;;;;;32.93;15.60;;;;;;;;;;5068496;28;20450;-74
2020/12/09 08:33:00;;;;;;;37.70;17.23;;;;;;;;;;5054839;28;20405;-72
2020/12/09 08:35:28;;;;;;;44.70;15.87;;;;;;;;;;5050631;28;20421;-72
2020/12/09 08:37:54;;;;;;;29.93;15.03;;;;;;;;;;5053204;28;20429;-72
2020/12/09 08:40:54;;;;;;;43.67;17.77;;;;;;;;;;5046543;28;20450;-72
2020/12/09 08:43:24;;;;;;;33.77;16.50;;;;;;;;;;5029400;28;20402;-71
2020/12/09 08:45:50;;;;;;;33.43;16.67;;;;;;;;;;5046159;28;20956;-71
2020/12/09 08:48:18;;;;;;;40.67;17.73;;;;;;;;;;5034256;28;20600;-71
2020/12/09 08:50:46;;;;;;;45.47;18.60;;;;;;;;;;5048882;28;20472;-72
2020/12/09 08:53:12;;;;;;;38.13;17.10;;;;;;;;;;5066887;28;20426;-72
2020/12/09 08:55:38;;;;;;;37.20;15.77;;;;;;;;;;5053898;28;20929;-70
2020/12/09 08:58:04;;;;;;;41.53;16.53;;;;;;;;;;5041797;28;20822;-71
2020/12/09 09:00:30;;;;;;;50.50;20.20;;;;;;;;;;5038286;28;20450;-70
2020/12/09 09:02:57;;;;;;;39.50;17.33;;;;;;;;;;5036023;28;20821;-70
2020/12/09 09:05:23;;;;;;;38.13;16.73;;;;;;;;;;5063618;28;20426;-71
2020/12/09 09:07:49;;;;;;;32.93;16.77;;;;;;;;;;5053836;28;20481;-71
2020/12/09 09:10:15;;;;;;;38.43;17.17;;;;;;;;;;5052934;28;20474;-72
2020/12/09 09:12:41;;;;;;;39.80;17.27;;;;;;;;;;5053641;28;20398;-71
2020/12/09 09:15:07;;;;;;;39.17;17.50;;;;;;;;;;5052542;28;20398;-70
2020/12/09 09:17:33;;;;;;;36.73;15.87;;;;;;;;;;5035805;28;20414;-70
2020/12/09 09:19:59;;;;;;;29.60;14.97;;;;;;;;;;5047926;28;20978;-71
2020/12/09 09:22:25;;;;;;;35.27;17.10;;;;;;;;;;5052415;28;20417;-72
2020/12/09 09:24:51;;;;;;;31.93;17.40;;;;;;;;;;5053673;28;20406;-72
2020/12/09 09:27:17;;;;;;;44.47;16.20;;;;;;;;;;5052665;28;20437;-72
2020/12/09 09:29:46;;;;;;;35.10;17.17;;;;;;;;;;5052655;28;20857;-72
2020/12/09 09:32:13;;;;;;;38.27;16.07;;;;;;;;;;5034635;28;20445;-72
2020/12/09 09:34:39;;;;;;;36.43;15.87;;;;;;;;;;5038357;28;20406;-71
2020/12/09 09:37:08;;;;;;;36.10;15.70;;;;;;;;;;5034274;28;20434;-71
2020/12/09 09:39:34;;;;;;;31.90;16.40;;;;;;;;;;5041294;28;20755;-71
2020/12/09 09:42:00;;;;;;;34.10;17.80;;;;;;;;;;5052003;28;20458;-72
2020/12/09 09:44:26;;;;;;;34.50;16.13;;;;;;;;;;5053127;28;20395;-72
2020/12/09 09:46:56;;;;;;;31.40;14.77;;;;;;;;;;5066261;28;20428;-72
2020/12/09 09:49:21;;;;;;;43.80;16.40;;;;;;;;;;5062481;28;20453;-71
2020/12/09 09:51:48;;;;;;;36.23;16.03;;;;;;;;;;5042362;28;20466;-72
2020/12/09 09:54:14;;;;;;;33.90;15.73;;;;;;;;;;5042145;28;20516;-72
2020/12/09 09:56:41;;;;;;;37.30;16.23;;;;;;;;;;5042182;28;20962;-72
2020/12/09 09:59:07;;;;;;;38.90;16.17;;;;;;;;;;5044363;28;20410;-72
2020/12/09 10:01:33;;;;;;;28.60;13.20;;;;;;;;;;5051756;28;20542;-72
2020/12/09 10:03:59;;;;;;;32.90;14.97;;;;;;;;;;5052187;28;20433;-72
2020/12/09 10:06:25;;;;;;;30.43;14.73;;;;;;;;;;5051886;28;20425;-72
2020/12/09 10:08:52;;;;;;;29.87;15.70;;;;;;;;;;5035001;28;20514;-72
2020/12/09 10:11:18;;;;;;;31.90;14.50;;;;;;;;;;5051522;28;20456;-73
2020/12/09 10:13:44;;;;;;;33.87;15.03;;;;;;;;;;5038658;28;20403;-73
2020/12/09 10:16:11;;;;;;;28.97;15.73;;;;;;;;;;5039566;28;20839;-72
2020/12/09 10:18:37;;;;;;;35.50;14.70;;;;;;;;;;5052745;28;20401;-72
2020/12/09 10:21:03;;;;;;;36.53;15.97;;;;;;;;;;5049480;28;20457;-72
2020/12/09 10:23:29;;;;;;;32.13;16.17;;;;;;;;;;5052643;28;20430;-72
2020/12/09 10:25:55;;;;;;;31.33;14.80;;;;;;;;;;5051587;28;20444;-72
2020/12/09 10:28:21;;;;;;;26.23;13.00;;;;;;;;;;5052880;28;20450;-72
2020/12/09 10:30:48;;;;;;;26.77;13.07;;;;;;;;;;5051325;28;20449;-72
2020/12/09 10:33:14;;;;;;;31.87;15.70;;;;;;;;;;5052471;28;20913;-73
2020/12/09 10:35:44;;;;;;;28.93;14.17;;;;;;;;;;5051066;28;20427;-72
2020/12/09 10:38:10;;;;;;;35.60;14.43;;;;;;;;;;5052652;28;20408;-72
2020/12/09 10:40:36;;;;;;;25.00;13.27;;;;;;;;;;5050914;28;20422;-72
2020/12/09 10:43:02;;;;;;;24.03;13.87;;;;;;;;;;5038543;28;20441;-72
2020/12/09 10:45:28;;;;;;;29.67;13.90;;;;;;;;;;5034195;28;20430;-72
2020/12/09 10:47:54;;;;;;;29.87;14.73;;;;;;;;;;5052409;28;20515;-72
2020/12/09 10:50:20;;;;;;;28.43;13.20;;;;;;;;;;5051216;28;20442;-74
2020/12/09 10:52:46;;;;;;;28.80;12.63;;;;;;;;;;5051282;28;20406;-71
2020/12/09 10:55:12;;;;;;;30.77;14.70;;;;;;;;;;5031853;28;20900;-71
2020/12/09 10:57:38;;;;;;;29.67;16.07;;;;;;;;;;5038184;28;20433;-71
2020/12/09 11:00:05;;;;;;;25.10;13.83;;;;;;;;;;5034695;28;20430;-71
2020/12/09 11:02:31;;;;;;;35.27;16.03;;;;;;;;;;5052061;28;20436;-70
2020/12/09 11:04:57;;;;;;;32.50;13.40;;;;;;;;;;5055922;28;20405;-72
2020/12/09 11:07:23;;;;;;;25.93;12.80;;;;;;;;;;5049804;28;20421;-71
2020/12/09 11:09:49;;;;;;;26.40;13.70;;;;;;;;;;5044948;28;20433;-73
2020/12/09 11:12:15;;;;;;;25.13;11.33;;;;;;;;;;5045019;28;20439;-71
2020/12/09 11:14:41;;;;;;;27.70;13.80;;;;;;;;;;5056121;28;21005;-71
2020/12/09 11:17:07;;;;;;;25.83;12.80;;;;;;;;;;5054998;28;20429;-72
2020/12/09 11:19:33;;;;;;;25.97;12.70;;;;;;;;;;5046139;28;20502;-72
2020/12/09 11:21:59;;;;;;;25.83;14.37;;;;;;;;;;5042103;28;20496;-71
2020/12/09 11:24:26;;;;;;;21.73;12.83;;;;;;;;;;5042504;28;20806;-73
2020/12/09 11:26:52;;;;;;;22.27;11.70;;;;;;;;;;5027708;28;20434;-72
2020/12/09 11:29:18;;;;;;;28.10;13.83;;;;;;;;;;5043273;28;20485;-72
2020/12/09 11:31:44;;;;;;;25.43;13.00;;;;;;;;;;5045535;28;20442;-73
2020/12/09 11:34:10;;;;;;;22.80;13.60;;;;;;;;;;5044847;28;20402;-72
2020/12/09 11:36:36;;;;;;;25.77;12.97;;;;;;;;;;5046424;28;20482;-71
2020/12/09 11:39:03;;;;;;;26.10;13.53;;;;;;;;;;5045738;28;20410;-72
2020/12/09 11:41:30;;;;;;;25.00;13.90;;;;;;;;;;5045601;28;20537;-72
2020/12/09 11:43:57;;;;;;;26.73;13.73;;;;;;;;;;5027361;28;20919;-72
2020/12/09 11:46:23;;;;;;;22.07;11.70;;;;;;;;;;5026669;28;20422;-72
2020/12/09 11:48:50;;;;;;;23.10;12.33;;;;;;;;;;5044146;28;20458;-72
2020/12/09 11:51:16;;;;;;;27.10;12.40;;;;;;;;;;5041928;28;20982;-73
2020/12/09 11:53:42;;;;;;;26.17;13.73;;;;;;;;;;5037859;28;20414;-72
2020/12/09 11:56:09;;;;;;;27.27;13.90;;;;;;;;;;5055016;28;20422;-72
2020/12/09 11:58:35;;;;;;;24.73;12.70;;;;;;;;;;5056423;28;20413;-72
2020/12/09 12:01:01;;;;;;;29.57;13.20;;;;;;;;;;5054596;28;20430;-72
2020/12/09 12:03:28;;;;;;;26.07;12.80;;;;;;;;;;5055095;28;20424;-71
2020/12/09 12:05:55;;;;;;;23.93;11.83;;;;;;;;;;5053230;28;20449;-73
2020/12/09 12:08:21;;;;;;;25.20;13.30;;;;;;;;;;5036385;28;20958;-72
2020/12/09 12:10:48;;;;;;;24.13;11.50;;;;;;;;;;5054376;28;20424;-71
2020/12/09 12:13:14;;;;;;;20.80;12.80;;;;;;;;;;5054991;28;20502;-72
2020/12/09 12:15:41;;;;;;;21.97;11.87;;;;;;;;;;5053614;28;20418;-71
2020/12/09 12:18:08;;;;;;;20.57;10.10;;;;;;;;;;5053754;28;20798;-71
2020/12/09 12:20:34;;;;;;;22.67;13.20;;;;;;;;;;5052894;28;20804;-73
2020/12/09 12:23:00;;;;;;;24.87;12.00;;;;;;;;;;5044356;28;20452;-72
2020/12/09 12:25:26;;;;;;;25.10;11.97;;;;;;;;;;5044676;28;20444;-73
2020/12/09 12:27:52;;;;;;;24.77;11.33;;;;;;;;;;5044319;28;20445;-71
2020/12/09 12:30:18;;;;;;;23.80;13.03;;;;;;;;;;5044834;28;20483;-72
2020/12/09 12:32:44;;;;;;;22.53;12.30;;;;;;;;;;5044708;28;20432;-71
2020/12/09 12:35:10;;;;;;;20.07;10.07;;;;;;;;;;5047743;28;20489;-72
2020/12/09 12:37:36;;;;;;;26.67;12.30;;;;;;;;;;5043702;28;20485;-71
2020/12/09 12:40:03;;;;;;;17.73;10.67;;;;;;;;;;5038592;28;20438;-71
2020/12/09 12:42:29;;;;;;;26.80;10.87;;;;;;;;;;5045234;28;20426;-72
2020/12/09 12:44:55;;;;;;;23.07;12.97;;;;;;;;;;5041444;28;20802;-71
2020/12/09 12:47:21;;;;;;;24.17;10.77;;;;;;;;;;5044186;28;20470;-71
2020/12/09 12:49:47;;;;;;;22.50;11.23;;;;;;;;;;5043155;28;20478;-72
2020/12/09 12:52:13;;;;;;;24.27;13.47;;;;;;;;;;5043917;28;20466;-71
2020/12/09 12:54:39;;;;;;;17.60;9.50;;;;;;;;;;5041582;28;20399;-71
2020/12/09 12:57:06;;;;;;;19.87;11.10;;;;;;;;;;5044683;28;20454;-71
2020/12/09 12:59:32;;;;;;;20.47;11.00;;;;;;;;;;5042868;28;20425;-71
2020/12/09 13:02:00;;;;;;;18.60;10.03;;;;;;;;;;5027151;28;20969;-71
2020/12/09 13:04:29;;;;;;;22.00;11.53;;;;;;;;;;5049252;28;20414;-72
2020/12/09 13:06:55;;;;;;;24.07;11.40;;;;;;;;;;5052012;28;20433;-72
2020/12/09 13:09:21;;;;;;;24.93;11.17;;;;;;;;;;5053477;28;20460;-71
2020/12/09 13:11:47;;;;;;;18.67;10.93;;;;;;;;;;5052685;28;20453;-71
2020/12/09 13:14:13;;;;;;;27.23;12.30;;;;;;;;;;5040640;28;20513;-71
2020/12/09 13:16:40;;;;;;;21.67;10.70;;;;;;;;;;5036871;28;20425;-72
2020/12/09 13:19:06;;;;;;;23.30;10.73;;;;;;;;;;5051958;28;20922;-71
2020/12/09 13:21:33;;;;;;;26.97;9.93;;;;;;;;;;5052769;28;20454;-71
2020/12/09 13:23:59;;;;;;;15.87;10.13;;;;;;;;;;5052762;28;20418;-71
2020/12/09 13:26:25;;;;;;;20.03;11.30;;;;;;;;;;5053100;28;20523;-71
2020/12/09 13:28:51;;;;;;;29.90;10.47;;;;;;;;;;5053810;28;20504;-71
2020/12/09 13:31:17;;;;;;;25.50;13.50;;;;;;;;;;5052735;28;20837;-70
2020/12/09 13:33:43;;;;;;;21.00;10.30;;;;;;;;;;5052654;28;20414;-71
2020/12/09 13:36:09;;;;;;;15.63;9.70;;;;;;;;;;5051066;28;20425;-72
2020/12/09 13:38:35;;;;;;;24.13;11.57;;;;;;;;;;5053164;28;20433;-71
2020/12/09 13:41:01;;;;;;;17.73;10.27;;;;;;;;;;5052926;28;20833;-72
2020/12/09 13:43:27;;;;;;;22.80;11.10;;;;;;;;;;5034374;28;20433;-71
2020/12/09 13:45:53;;;;;;;21.43;9.63;;;;;;;;;;5053160;28;20398;-71
2020/12/09 13:48:21;;;;;;;16.83;9.30;;;;;;;;;;5052252;28;20972;-71
2020/12/09 13:50:47;;;;;;;20.57;9.50;;;;;;;;;;5053017;28;20820;-72
2020/12/09 13:53:13;;;;;;;20.17;10.93;;;;;;;;;;5052200;28;20437;-71
2020/12/09 13:55:39;;;;;;;14.43;8.17;;;;;;;;;;5049117;28;20425;-71
2020/12/09 13:58:05;;;;;;;18.50;10.67;;;;;;;;;;5043534;28;20480;-71
2020/12/09 14:00:31;;;;;;;17.97;8.97;;;;;;;;;;5039512;28;20431;-72
2020/12/09 14:02:58;;;;;;;13.80;7.93;;;;;;;;;;5045201;28;20465;-71
2020/12/09 14:05:24;;;;;;;14.20;8.00;;;;;;;;;;5052660;28;20417;-71
2020/12/09 14:07:50;;;;;;;20.13;9.70;;;;;;;;;;5051972;28;20548;-71
2020/12/09 14:10:16;;;;;;;15.37;9.70;;;;;;;;;;5051634;28;20469;-71
2020/12/09 14:12:42;;;;;;;18.03;10.10;;;;;;;;;;5050886;28;20422;-70
2020/12/09 14:15:08;;;;;;;17.30;9.80;;;;;;;;;;5052206;28;20851;-70
2020/12/09 14:17:34;;;;;;;13.83;8.53;;;;;;;;;;5050999;28;20504;-70